LCPH Airport Information

Runway Information
Runway 11 Length 8858 ft width 148 ft
Elevation 41 ft Threshold 0 ft Heading 110
Runway 29 Length 8858 ft Width 148 ft
Elevation 30 ft Threshold 0 ft Heading 290
Airport Frequencies
Type APP Name APP Frequency 120.8 MHZ
Type TWR Name TWR Frequency 119.9 MHZ
Airport Navaids
Type TACAN Name Pafos Frequency 113200 KHZ
Type VOR-DME Name Pafos Frequency 117900 KHZ
Type NDB Name Pafos Frequency 328 KHZ
Airport Weather Information & NOTAM
ADDS - METARS form results

(0421 UTC 16 October 2019)
Data provider http://aviationweather.gov/metar/data/
 
METAR text: LCPH 160400Z 01007KT 9999 FEW020 21/17 Q1013
Conditions at: LCPH (PAPHOS/BAF INTL , CY) observed 0400 UTC 16 October 2019
Temperature: 21.0°C (70°F)
Dewpoint: 17.0°C (63°F) [RH = 78%]
Pressure (altimeter): 29.91 inches Hg (1013.0 mb)
Winds: from the N (10 degrees) at 8 MPH (7 knots; 3.6 m/s)
Visibility: 6 or more miles (10+ km)
Ceiling: at least 12,000 feet AGL
Clouds: few clouds at 2000 feet AGL
Weather: no significant weather observed at this time

METAR text: LCPH 160330Z 01006KT 9999 FEW020 20/16 Q1013
Conditions at: LCPH (PAPHOS/BAF INTL , CY) observed 0330 UTC 16 October 2019
Temperature: 20.0°C (68°F)
Dewpoint: 16.0°C (61°F) [RH = 78%]
Pressure (altimeter): 29.91 inches Hg (1013.0 mb)
Winds: from the N (10 degrees) at 7 MPH (6 knots; 3.1 m/s)
Visibility: 6 or more miles (10+ km)
Ceiling: at least 12,000 feet AGL
Clouds: few clouds at 2000 feet AGL
Weather: no significant weather observed at this time

Forecast for: LCPH (PAPHOS/BAF INTL , CY)
Text: TAF LCPH 152330Z 1600/1624 01007KT 9999 FEW020
Forecast period: 0000 to 0900 UTC 16 October 2019
Forecast type: FROM: standard forecast or significant change
Winds: from the N (10 degrees) at 8 MPH (7 knots; 3.6 m/s)
Visibility: 6 or more miles 10+ km)
Ceiling: at least 12,000 feet AGL
Clouds: few clouds at 2000 feet AGL
Weather: no significant weather forecast for this period
Text: BECMG 1609/1613 28012KT
Forecast period: 0900 to 1800 UTC 16 October 2019
Forecast type: BECOMING: Conditions expected to become as follows by 1300 UTC 16 October 2019
Winds: from the W (280 degrees) at 14 MPH (12 knots; 6.2 m/s)
Visibility: 6 or more miles 10+ km)
Ceiling: at least 12,000 feet AGL
Clouds: few clouds at 2000 feet AGL
Weather: no significant weather forecast for this period
Text: BECMG 1618/1622 03006KT
Forecast period: 1800 UTC 16 October 2019 to 0000 UTC 17 October 2019
Forecast type: BECOMING: Conditions expected to become as follows by 2200 UTC 16 October 2019
Winds: from the NNE (30 degrees) at 7 MPH (6 knots; 3.1 m/s)
Visibility: 6 or more miles 10+ km)
Ceiling: at least 12,000 feet AGL
Clouds: few clouds at 2000 feet AGL
Weather: no significant weather forecast for this period